createdAt,value
2022-12-05T00:02:16.678Z,2.37
2022-12-05T00:04:45.901Z,2.40
2022-12-05T00:07:14.927Z,2.60
2022-12-05T00:09:44.433Z,2.57
2022-12-05T00:12:13.634Z,3.23
2022-12-05T00:14:42.524Z,3.10
2022-12-05T00:17:13.365Z,2.07
2022-12-05T00:19:42.664Z,2.50
2022-12-05T00:22:11.506Z,2.50
2022-12-05T00:24:41.060Z,2.10
2022-12-05T00:27:12.508Z,2.43
2022-12-05T00:29:41.815Z,3.20
2022-12-05T00:32:12.673Z,2.40
2022-12-05T00:34:42.055Z,2.43
2022-12-05T00:37:11.253Z,2.70
2022-12-05T00:39:40.457Z,2.17
2022-12-05T00:42:09.448Z,2.13
2022-12-05T00:44:38.750Z,2.57
2022-12-05T00:47:07.846Z,2.43
2022-12-05T00:49:38.478Z,2.67
2022-12-05T00:52:07.206Z,2.23
2022-12-05T00:54:40.357Z,2.37
2022-12-05T00:57:09.454Z,2.43
2022-12-05T00:59:38.449Z,2.10
2022-12-05T01:02:10.207Z,2.27
2022-12-05T01:04:42.580Z,3.20
2022-12-05T01:07:11.679Z,1.97
2022-12-05T01:09:40.518Z,2.67
2022-12-05T01:12:09.770Z,2.57
2022-12-05T01:14:39.121Z,2.60
2022-12-05T01:17:07.928Z,2.60
2022-12-05T01:19:36.957Z,2.43
2022-12-05T01:22:07.593Z,2.50
2022-12-05T01:24:36.685Z,2.10
2022-12-05T01:27:05.942Z,2.57
2022-12-05T01:29:34.939Z,2.23
2022-12-05T01:32:04.642Z,2.50
2022-12-05T01:34:33.995Z,2.77
2022-12-05T01:37:02.892Z,2.33
2022-12-05T01:39:33.233Z,2.23
2022-12-05T01:42:02.408Z,2.10
2022-12-05T01:45:06.132Z,1.97
2022-12-05T01:47:38.975Z,2.30
2022-12-05T01:50:17.112Z,2.30
2022-12-05T01:52:46.001Z,2.80
2022-12-05T01:55:18.175Z,2.30
2022-12-05T01:57:48.203Z,2.07
2022-12-05T02:00:19.849Z,2.70
2022-12-05T02:02:55.247Z,2.70
2022-12-05T02:05:27.864Z,2.80
2022-12-05T02:08:00.780Z,2.90
2022-12-05T02:10:35.585Z,2.83
2022-12-05T02:13:13.061Z,2.73
2022-12-05T02:15:45.458Z,2.50
2022-12-05T02:18:27.435Z,2.60
2022-12-05T02:21:12.523Z,1.83
2022-12-05T02:24:07.376Z,1.90
2022-12-05T02:27:01.917Z,2.50
2022-12-05T02:30:06.546Z,2.13
2022-12-05T02:32:46.917Z,2.13
2022-12-05T02:35:25.634Z,2.47
2022-12-05T02:38:03.973Z,2.93
2022-12-05T02:40:35.710Z,2.87
2022-12-05T02:43:08.802Z,2.20
2022-12-05T02:45:40.403Z,2.30
2022-12-05T02:48:11.285Z,2.50
2022-12-05T02:50:40.894Z,2.43
2022-12-05T02:53:13.040Z,2.63
2022-12-05T02:55:42.550Z,2.83
2022-12-05T02:58:16.285Z,2.77
2022-12-05T03:00:50.190Z,2.47
2022-12-05T03:03:21.123Z,2.50
2022-12-05T03:05:55.383Z,2.30
2022-12-05T03:08:28.224Z,2.80
2022-12-05T03:10:58.119Z,2.50
2022-12-05T03:13:29.497Z,2.80
2022-12-05T03:16:04.630Z,3.10
2022-12-05T03:18:38.024Z,2.43
2022-12-05T03:21:12.446Z,2.80
2022-12-05T03:23:46.717Z,2.80
2022-12-05T03:26:23.543Z,2.17
2022-12-05T03:29:22.738Z,3.40
2022-12-05T03:31:59.915Z,2.27
2022-12-05T03:34:36.890Z,2.60
2022-12-05T03:37:09.496Z,3.00
2022-12-05T03:39:39.703Z,2.97
2022-12-05T03:42:14.342Z,2.53
2022-12-05T03:44:48.755Z,2.40
2022-12-05T03:47:22.364Z,2.10
2022-12-05T03:49:53.509Z,2.37
2022-12-05T03:52:26.803Z,2.23
2022-12-05T03:54:58.650Z,3.00
2022-12-05T03:57:29.929Z,2.30
2022-12-05T04:00:01.316Z,2.17
2022-12-05T04:02:35.972Z,2.17
2022-12-05T04:05:08.852Z,2.37
2022-12-05T04:07:40.432Z,2.10
2022-12-05T04:10:27.852Z,3.20
2022-12-05T04:12:58.081Z,2.00
2022-12-05T04:15:50.014Z,2.00
2022-12-05T04:18:19.410Z,2.30
2022-12-05T04:21:06.966Z,2.10
2022-12-05T04:23:35.929Z,2.60
2022-12-05T04:26:09.297Z,2.53
2022-12-05T04:28:40.765Z,2.30
2022-12-05T04:31:12.809Z,2.60
2022-12-05T04:33:45.529Z,2.40
2022-12-05T04:36:15.357Z,1.90
2022-12-05T04:38:46.628Z,2.00
2022-12-05T04:41:17.562Z,2.70
2022-12-05T04:43:47.163Z,2.37
2022-12-05T04:46:17.792Z,2.40
2022-12-05T04:48:51.489Z,2.63
2022-12-05T04:51:22.300Z,2.93
2022-12-05T04:53:54.674Z,2.40
2022-12-05T04:56:23.695Z,2.43
2022-12-05T04:58:51.732Z,2.90
2022-12-05T05:01:24.222Z,2.07
2022-12-05T05:03:56.666Z,3.10
2022-12-05T05:06:24.789Z,2.57
2022-12-05T05:08:54.184Z,2.87
2022-12-05T05:11:24.512Z,2.53
2022-12-05T05:13:52.838Z,3.00
2022-12-05T05:16:22.776Z,2.57
2022-12-05T05:18:51.436Z,3.10
2022-12-05T05:21:22.736Z,2.50
2022-12-05T05:23:51.037Z,3.13
2022-12-05T05:26:19.699Z,2.67
2022-12-05T05:28:48.333Z,2.33
2022-12-05T05:31:16.756Z,2.83
2022-12-05T05:33:44.907Z,3.17
2022-12-05T05:36:14.844Z,2.20
2022-12-05T05:38:46.087Z,2.87
2022-12-05T05:41:15.314Z,2.50
2022-12-05T05:43:43.925Z,3.03
2022-12-05T05:46:12.523Z,2.80
2022-12-05T05:48:40.593Z,2.57
2022-12-05T05:51:10.627Z,4.20
2022-12-05T05:53:39.395Z,2.80
2022-12-05T05:56:10.546Z,3.43
2022-12-05T05:58:38.855Z,2.80
2022-12-05T06:01:08.111Z,3.37
2022-12-05T06:03:36.721Z,3.50
2022-12-05T06:06:07.135Z,2.43
2022-12-05T06:08:36.641Z,3.17
2022-12-05T06:11:06.248Z,2.90
2022-12-05T06:13:35.640Z,2.57
2022-12-05T06:16:05.681Z,3.53
2022-12-05T06:18:33.774Z,2.77
2022-12-05T06:21:01.850Z,3.10
2022-12-05T06:23:29.980Z,3.97
2022-12-05T06:25:58.141Z,3.20
2022-12-05T06:28:27.343Z,3.50
2022-12-05T06:30:56.764Z,3.40
2022-12-05T06:33:24.789Z,3.50
2022-12-05T06:36:03.553Z,3.37
2022-12-05T06:38:58.077Z,4.03
2022-12-05T06:41:26.243Z,3.30
2022-12-05T06:44:01.430Z,3.43
2022-12-05T06:46:31.237Z,3.83
2022-12-05T06:48:59.866Z,3.33
2022-12-05T06:51:28.003Z,3.10
2022-12-05T06:54:03.410Z,3.97
2022-12-05T06:56:50.296Z,4.17
2022-12-05T06:59:37.894Z,3.57
2022-12-05T07:02:24.952Z,4.27
2022-12-05T07:05:04.604Z,3.93
2022-12-05T07:07:42.730Z,3.60
2022-12-05T07:10:36.103Z,2.57
2022-12-05T07:13:33.073Z,2.97
2022-12-05T07:16:42.720Z,2.70
2022-12-05T07:19:31.453Z,3.07
2022-12-05T07:22:16.627Z,2.67
2022-12-05T07:25:04.474Z,3.10
2022-12-05T07:27:49.295Z,2.40
2022-12-05T07:30:20.548Z,2.63
2022-12-05T07:32:48.714Z,2.27
2022-12-05T07:35:18.879Z,3.00
2022-12-05T07:37:47.146Z,2.30
2022-12-05T07:40:15.911Z,3.00
2022-12-05T07:42:44.017Z,2.80
2022-12-05T07:45:12.659Z,2.97
2022-12-05T07:47:40.793Z,3.40
2022-12-05T07:50:09.391Z,3.07
2022-12-05T07:52:38.984Z,3.10
2022-12-05T07:55:08.229Z,3.00
2022-12-05T07:58:01.899Z,2.50
2022-12-05T08:00:30.010Z,2.90
2022-12-05T08:02:58.179Z,2.50
2022-12-05T08:05:26.424Z,2.90
2022-12-05T08:07:55.950Z,2.83
2022-12-05T08:10:24.190Z,2.60
2022-12-05T08:12:52.631Z,2.43
2022-12-05T08:15:20.752Z,3.03
2022-12-05T08:17:48.914Z,2.97
2022-12-05T08:20:17.184Z,3.07
2022-12-05T08:22:45.307Z,3.20
2022-12-05T08:25:14.705Z,2.10
2022-12-05T08:27:42.768Z,3.20
2022-12-05T08:30:10.993Z,2.70
2022-12-05T08:32:39.018Z,3.53
2022-12-05T08:35:07.456Z,3.30
2022-12-05T08:37:35.526Z,3.37
2022-12-05T08:40:03.740Z,2.80
2022-12-05T08:42:33.223Z,3.03
2022-12-05T08:45:01.381Z,3.83
2022-12-05T08:47:32.301Z,3.00
2022-12-05T08:50:00.845Z,2.90
2022-12-05T08:52:29.095Z,2.60
2022-12-05T08:54:57.572Z,2.33
2022-12-05T08:57:25.820Z,3.20
2022-12-05T08:59:55.363Z,2.83
2022-12-05T09:02:23.517Z,2.80
2022-12-05T09:04:54.030Z,2.90
2022-12-05T09:07:22.455Z,2.97
2022-12-05T09:09:50.544Z,3.23
2022-12-05T09:12:18.703Z,3.10
2022-12-05T09:14:46.792Z,3.37
2022-12-05T09:17:16.337Z,2.73
2022-12-05T09:19:45.127Z,3.20
2022-12-05T09:22:13.211Z,2.50
2022-12-05T09:24:41.261Z,2.73
2022-12-05T09:27:09.318Z,2.90
2022-12-05T09:29:37.435Z,3.00
2022-12-05T09:32:06.124Z,3.53
2022-12-05T09:34:35.993Z,3.00
2022-12-05T09:37:23.168Z,3.20
2022-12-05T09:39:53.025Z,3.20
2022-12-05T09:42:31.971Z,3.03
2022-12-05T09:45:27.133Z,2.90
2022-12-05T09:48:01.118Z,3.03
2022-12-05T09:50:32.279Z,2.90
2022-12-05T09:53:06.594Z,2.77
2022-12-05T09:55:47.093Z,2.50
2022-12-05T09:58:23.230Z,3.50
2022-12-05T10:01:24.547Z,2.63
2022-12-05T10:04:09.070Z,2.70
2022-12-05T10:06:42.060Z,2.50
2022-12-05T10:09:21.294Z,2.90
2022-12-05T10:11:54.278Z,2.90
2022-12-05T10:14:29.567Z,2.90
2022-12-05T10:16:59.358Z,2.73
2022-12-05T10:19:30.388Z,2.20
2022-12-05T10:22:03.669Z,2.90
2022-12-05T10:24:35.240Z,2.53
2022-12-05T10:27:06.764Z,3.90
2022-12-05T10:29:36.835Z,3.30
2022-12-05T10:32:08.866Z,2.60
2022-12-05T10:34:40.678Z,2.77
2022-12-05T10:37:17.366Z,3.20
2022-12-05T10:39:46.016Z,2.80
2022-12-05T10:42:16.815Z,2.70
2022-12-05T10:44:45.018Z,3.43
2022-12-05T10:47:13.818Z,2.77
2022-12-05T10:49:42.248Z,3.10
2022-12-05T10:52:10.930Z,2.50
2022-12-05T10:54:44.467Z,2.47
2022-12-05T10:57:23.116Z,2.93
2022-12-05T10:59:51.422Z,2.87
2022-12-05T11:02:24.849Z,2.90
2022-12-05T11:04:53.581Z,3.53
2022-12-05T11:07:32.110Z,2.30
2022-12-05T11:10:03.167Z,2.80
2022-12-05T11:12:37.997Z,2.87
2022-12-05T11:15:11.827Z,2.93
2022-12-05T11:17:41.074Z,3.00
2022-12-05T11:20:39.405Z,2.43
2022-12-05T11:23:25.495Z,3.30
2022-12-05T11:25:55.622Z,2.93
2022-12-05T11:28:35.402Z,2.93
2022-12-05T11:31:06.097Z,3.37
2022-12-05T11:33:35.631Z,3.23
2022-12-05T11:36:13.042Z,3.80
2022-12-05T11:38:42.680Z,3.07
2022-12-05T11:41:21.426Z,2.77
2022-12-05T11:44:02.490Z,3.40
2022-12-05T11:46:36.666Z,2.80
2022-12-05T11:49:16.561Z,3.13
2022-12-05T11:51:50.428Z,3.40
2022-12-05T11:55:03.913Z,2.40
2022-12-05T11:57:52.910Z,2.80
2022-12-05T12:00:24.543Z,3.90
2022-12-05T12:03:18.854Z,3.00
2022-12-05T12:05:54.732Z,3.30
2022-12-05T12:08:25.382Z,2.77
2022-12-05T12:11:20.210Z,3.10
2022-12-05T12:13:58.708Z,3.53
2022-12-05T12:16:35.229Z,3.63
2022-12-05T12:19:21.189Z,3.73
2022-12-05T12:22:10.463Z,3.73
2022-12-05T12:24:54.130Z,3.63
2022-12-05T12:27:31.112Z,3.80
2022-12-05T12:30:05.028Z,3.40
2022-12-05T12:32:36.839Z,3.40
2022-12-05T12:35:18.941Z,3.33
2022-12-05T12:37:56.502Z,3.60
2022-12-05T12:40:29.284Z,2.87
2022-12-05T12:43:05.994Z,3.23
2022-12-05T12:45:50.863Z,3.87
2022-12-05T12:48:33.814Z,2.73
2022-12-05T12:51:03.028Z,3.30
2022-12-05T12:53:52.775Z,3.10
2022-12-05T12:56:36.803Z,3.27
2022-12-05T12:59:16.473Z,3.23
2022-12-05T13:01:49.690Z,3.90
2022-12-05T13:04:20.530Z,2.77
2022-12-05T13:06:50.774Z,2.87
2022-12-05T13:09:22.656Z,3.00
2022-12-05T13:11:51.874Z,3.40
2022-12-05T13:14:24.809Z,3.53
2022-12-05T13:16:56.274Z,2.80
2022-12-05T13:19:29.052Z,2.50
2022-12-05T13:21:59.755Z,2.70
2022-12-05T13:24:29.513Z,3.10
2022-12-05T13:27:00.528Z,2.90
2022-12-05T13:29:32.709Z,2.77
2022-12-05T13:32:03.385Z,3.13
2022-12-05T13:34:46.514Z,3.30
2022-12-05T13:37:38.550Z,3.13
2022-12-05T13:40:50.132Z,2.53
2022-12-05T13:43:20.823Z,2.50
2022-12-05T13:46:02.154Z,2.70
2022-12-05T13:48:33.994Z,2.70
2022-12-05T13:51:05.572Z,3.50
2022-12-05T13:53:38.344Z,2.47
2022-12-05T13:56:13.632Z,2.87
2022-12-05T13:58:48.652Z,2.60
2022-12-05T14:01:55.307Z,3.30
2022-12-05T14:04:50.614Z,3.33
2022-12-05T14:07:40.390Z,2.70
2022-12-05T14:10:09.621Z,2.13
2022-12-05T14:12:59.626Z,2.70
2022-12-05T14:15:30.402Z,3.20
2022-12-05T14:18:01.834Z,3.30
2022-12-05T14:20:39.311Z,2.80
2022-12-05T14:23:21.568Z,3.30
2022-12-05T14:26:05.692Z,3.13
2022-12-05T14:29:54.029Z,3.30
2022-12-05T14:32:25.352Z,2.60
2022-12-05T14:34:59.113Z,2.77
2022-12-05T14:37:30.146Z,2.83
2022-12-05T14:40:01.406Z,2.80
2022-12-05T14:42:38.998Z,2.40
2022-12-05T14:45:31.517Z,2.90
2022-12-05T14:48:01.351Z,2.50
2022-12-05T14:50:43.789Z,3.00
2022-12-05T14:53:33.363Z,2.90
2022-12-05T14:56:13.380Z,2.70
2022-12-05T14:58:44.653Z,2.50
2022-12-05T15:01:17.993Z,2.70
2022-12-05T15:04:01.588Z,3.07
2022-12-05T15:06:30.418Z,2.80
2022-12-05T15:09:21.131Z,2.57
2022-12-05T15:11:48.971Z,3.23
2022-12-05T15:14:21.190Z,3.20
2022-12-05T15:16:52.011Z,2.97
2022-12-05T15:19:23.227Z,2.53
2022-12-05T15:21:56.159Z,3.43
2022-12-05T15:24:24.258Z,3.30
2022-12-05T15:26:54.797Z,3.07
2022-12-05T15:29:26.758Z,2.87
2022-12-05T15:32:20.369Z,3.10
2022-12-05T15:34:53.030Z,2.87
2022-12-05T15:37:25.810Z,3.50
2022-12-05T15:39:56.150Z,3.90
2022-12-05T15:42:30.020Z,3.40
2022-12-05T15:45:13.610Z,3.30
2022-12-05T15:47:42.478Z,3.00
2022-12-05T15:50:14.085Z,2.87
2022-12-05T15:52:45.009Z,2.67
2022-12-05T15:55:15.322Z,3.10
2022-12-05T15:57:48.910Z,2.90
2022-12-05T16:00:18.502Z,3.10
2022-12-05T16:02:48.238Z,3.90
2022-12-05T16:05:21.286Z,3.00
2022-12-05T16:07:50.597Z,3.80
2022-12-05T16:10:23.398Z,3.60
2022-12-05T16:12:55.649Z,3.40
2022-12-05T16:15:26.257Z,3.97
2022-12-05T16:17:55.847Z,3.90
2022-12-05T16:20:31.596Z,3.20
2022-12-05T16:23:02.233Z,3.30
2022-12-05T16:25:31.865Z,3.30
2022-12-05T16:28:04.488Z,3.73
2022-12-05T16:30:33.080Z,2.53
2022-12-05T16:33:04.404Z,3.47
2022-12-05T16:35:38.054Z,2.73
2022-12-05T16:38:14.709Z,2.97
2022-12-05T16:40:53.105Z,3.10
2022-12-05T16:43:29.166Z,3.00
2022-12-05T16:45:59.652Z,2.83
2022-12-05T16:48:28.662Z,3.27
2022-12-05T16:51:17.673Z,2.90
2022-12-05T16:53:47.718Z,2.80
2022-12-05T16:56:17.416Z,3.17
2022-12-05T16:58:47.192Z,3.20
2022-12-05T17:01:18.764Z,3.10
2022-12-05T17:03:47.015Z,3.00
2022-12-05T17:06:15.830Z,2.97
2022-12-05T17:08:43.894Z,2.60
2022-12-05T17:11:16.073Z,2.47
2022-12-05T17:13:45.249Z,2.20
2022-12-05T17:16:14.775Z,2.30
2022-12-05T17:18:42.987Z,2.73
2022-12-05T17:21:15.751Z,3.20
2022-12-05T17:23:47.717Z,2.60
2022-12-05T17:26:18.623Z,3.30
2022-12-05T17:28:46.883Z,2.87
2022-12-05T17:31:17.881Z,3.47
2022-12-05T17:33:46.200Z,3.10
2022-12-05T17:36:14.803Z,3.03
2022-12-05T17:38:43.428Z,2.83
2022-12-05T17:41:15.927Z,3.10
2022-12-05T17:43:44.231Z,3.10
2022-12-05T17:46:13.003Z,2.33
2022-12-05T17:48:42.624Z,3.30
2022-12-05T17:51:13.051Z,3.30
2022-12-05T17:53:41.286Z,2.90
2022-12-05T17:56:10.047Z,3.07
2022-12-05T17:58:38.081Z,3.40
2022-12-05T18:01:06.514Z,3.47
2022-12-05T18:03:34.892Z,2.47
2022-12-05T18:06:06.304Z,3.20
2022-12-05T18:08:39.506Z,2.87
2022-12-05T18:11:07.918Z,2.67
2022-12-05T18:13:36.272Z,3.00
2022-12-05T18:16:05.054Z,2.50
2022-12-05T18:18:33.200Z,3.20
2022-12-05T18:21:07.945Z,2.80
2022-12-05T18:23:37.300Z,2.57
2022-12-05T18:26:06.079Z,2.60
2022-12-05T18:28:35.707Z,2.30
2022-12-05T18:31:08.061Z,2.20
2022-12-05T18:33:39.474Z,2.10
2022-12-05T18:36:15.536Z,1.97
2022-12-05T18:38:43.781Z,2.50
2022-12-05T18:41:11.808Z,2.57
2022-12-05T18:43:40.522Z,2.20
2022-12-05T18:46:08.664Z,2.70
2022-12-05T18:48:42.616Z,2.20
2022-12-05T18:51:16.801Z,2.47
2022-12-05T18:53:51.712Z,2.67
2022-12-05T18:56:23.291Z,1.97
2022-12-05T18:58:55.756Z,1.87
2022-12-05T19:01:24.292Z,2.20
2022-12-05T19:03:52.667Z,2.67
2022-12-05T19:06:23.742Z,2.67
2022-12-05T19:08:54.580Z,2.50
2022-12-05T19:11:23.137Z,2.33
2022-12-05T19:13:51.185Z,2.33
2022-12-05T19:16:19.444Z,3.00
2022-12-05T19:18:47.987Z,2.30
2022-12-05T19:21:16.194Z,2.40
2022-12-05T19:23:45.648Z,3.03
2022-12-05T19:26:13.781Z,1.90
2022-12-05T19:28:41.931Z,2.77
2022-12-05T19:31:11.562Z,3.57
2022-12-05T19:33:40.926Z,2.40
2022-12-05T19:36:11.571Z,1.90
2022-12-05T19:38:40.766Z,2.20
2022-12-05T19:41:12.384Z,2.10
2022-12-05T19:43:40.897Z,1.50
2022-12-05T19:46:11.431Z,1.50
2022-12-05T19:48:39.508Z,1.37
2022-12-05T19:51:07.926Z,1.70
2022-12-05T19:53:38.245Z,1.30
2022-12-05T19:56:08.860Z,1.50
2022-12-05T19:58:39.066Z,1.40
2022-12-05T20:01:09.109Z,1.87
2022-12-05T20:03:37.304Z,1.50
2022-12-05T20:06:05.860Z,1.70
2022-12-05T20:08:34.081Z,2.03
2022-12-05T20:11:05.474Z,2.10
2022-12-05T20:13:49.179Z,1.80
2022-12-05T20:16:21.513Z,1.60
2022-12-05T20:18:50.577Z,1.77
2022-12-05T20:21:20.172Z,1.60
2022-12-05T20:23:48.295Z,1.70
2022-12-05T20:26:17.935Z,1.90
2022-12-05T20:28:46.410Z,2.27
2022-12-05T20:31:16.360Z,1.73
2022-12-05T20:33:46.460Z,1.67
2022-12-05T20:36:16.364Z,2.00
2022-12-05T20:38:44.785Z,1.97
2022-12-05T20:41:16.370Z,2.10
2022-12-05T20:43:44.654Z,2.20
2022-12-05T20:46:14.255Z,2.33
2022-12-05T20:48:42.388Z,2.57
2022-12-05T20:51:13.502Z,2.53
2022-12-05T20:53:43.209Z,2.30
2022-12-05T20:56:12.897Z,2.00
2022-12-05T20:58:42.046Z,1.73
2022-12-05T21:01:11.432Z,2.10
2022-12-05T21:03:41.720Z,2.07
2022-12-05T21:06:12.924Z,1.87
2022-12-05T21:08:41.532Z,1.60
2022-12-05T21:11:10.815Z,2.27
2022-12-05T21:13:40.104Z,2.07
2022-12-05T21:16:10.351Z,2.37
2022-12-05T21:18:38.493Z,2.53
2022-12-05T21:21:08.581Z,1.87
2022-12-05T21:23:38.086Z,1.63
2022-12-05T21:26:09.268Z,2.23
2022-12-05T21:28:37.434Z,1.90
2022-12-05T21:31:07.177Z,2.43
2022-12-05T21:33:35.223Z,2.40
2022-12-05T21:36:03.217Z,2.27
2022-12-05T21:38:31.260Z,2.00
2022-12-05T21:41:00.743Z,2.30
2022-12-05T21:43:29.304Z,1.93
2022-12-05T21:45:57.744Z,2.00
2022-12-05T21:48:26.036Z,2.40
2022-12-05T21:50:55.298Z,1.80
2022-12-05T21:53:23.777Z,2.50
2022-12-05T21:56:01.313Z,1.63
2022-12-05T21:58:29.513Z,2.07
2022-12-05T22:00:57.589Z,2.30
2022-12-05T22:03:25.599Z,2.60
2022-12-05T22:06:01.010Z,2.33
2022-12-05T22:08:29.967Z,1.70
2022-12-05T22:11:05.866Z,2.23
2022-12-05T22:13:34.105Z,2.00
2022-12-05T22:16:03.046Z,1.60
2022-12-05T22:18:31.753Z,1.90
2022-12-05T22:21:00.802Z,1.90
2022-12-05T22:23:29.334Z,1.73
2022-12-05T22:25:59.010Z,2.60
2022-12-05T22:28:29.062Z,1.87
2022-12-05T22:31:02.320Z,1.73
2022-12-05T22:33:31.666Z,2.50
2022-12-05T22:36:00.638Z,2.37
2022-12-05T22:38:30.887Z,2.10
2022-12-05T22:41:01.043Z,2.00
2022-12-05T22:43:31.865Z,1.80
2022-12-05T22:46:04.652Z,2.00
2022-12-05T22:48:33.061Z,2.00
2022-12-05T22:51:02.236Z,1.90
2022-12-05T22:53:30.773Z,2.10
2022-12-05T22:56:03.092Z,2.07
2022-12-05T22:58:32.892Z,2.03
2022-12-05T23:01:10.200Z,2.33
2022-12-05T23:03:38.379Z,2.40
2022-12-05T23:06:12.100Z,1.83
2022-12-05T23:08:41.503Z,1.90
2022-12-05T23:11:10.635Z,2.03
2022-12-05T23:13:40.511Z,1.90
2022-12-05T23:16:09.608Z,1.63
2022-12-05T23:18:46.856Z,2.17
2022-12-05T23:21:17.449Z,2.03
2022-12-05T23:23:45.950Z,2.27
2022-12-05T23:26:14.756Z,2.10
2022-12-05T23:28:45.010Z,2.57
2022-12-05T23:31:14.289Z,2.13
2022-12-05T23:33:42.650Z,2.17
2022-12-05T23:36:11.737Z,1.67
2022-12-05T23:38:41.039Z,1.87
2022-12-05T23:41:12.925Z,2.20
2022-12-05T23:43:41.622Z,1.90
2022-12-05T23:46:13.077Z,2.37
2022-12-05T23:48:41.380Z,2.50
2022-12-05T23:51:11.790Z,2.13
2022-12-05T23:53:41.527Z,1.97
2022-12-05T23:56:11.412Z,1.67
2022-12-05T23:58:40.077Z,2.00
